sensor_id;sensor_type;location;lat;lon;timestamp;P1;durP1;ratioP1;P2;durP2;ratioP2
49948;SDS011;35840;45.982;8.890;2023-02-01T00:01:06;10.32;;;5.63;;
49948;SDS011;35840;45.982;8.890;2023-02-01T00:03:33;9.32;;;5.22;;
49948;SDS011;35840;45.982;8.890;2023-02-01T00:06:00;5.88;;;4.30;;
49948;SDS011;35840;45.982;8.890;2023-02-01T00:08:28;8.10;;;4.45;;
49948;SDS011;35840;45.982;8.890;2023-02-01T00:11:05;8.43;;;5.10;;
49948;SDS011;35840;45.982;8.890;2023-02-01T00:13:34;7.00;;;4.13;;
49948;SDS011;35840;45.982;8.890;2023-02-01T00:18:32;7.30;;;3.50;;
49948;SDS011;35840;45.982;8.890;2023-02-01T00:20:59;6.40;;;3.53;;
49948;SDS011;35840;45.982;8.890;2023-02-01T00:23:26;5.18;;;3.08;;
49948;SDS011;35840;45.982;8.890;2023-02-01T00:25:53;9.60;;;3.30;;
49948;SDS011;35840;45.982;8.890;2023-02-01T00:28:20;4.28;;;2.50;;
49948;SDS011;35840;45.982;8.890;2023-02-01T00:30:46;8.18;;;3.08;;
49948;SDS011;35840;45.982;8.890;2023-02-01T00:33:13;5.28;;;2.78;;
49948;SDS011;35840;45.982;8.890;2023-02-01T00:35:40;6.68;;;2.97;;
49948;SDS011;35840;45.982;8.890;2023-02-01T00:38:06;5.00;;;2.78;;
49948;SDS011;35840;45.982;8.890;2023-02-01T00:40:33;6.97;;;3.58;;
49948;SDS011;35840;45.982;8.890;2023-02-01T00:43:00;4.75;;;3.45;;
49948;SDS011;35840;45.982;8.890;2023-02-01T00:45:26;9.77;;;3.03;;
49948;SDS011;35840;45.982;8.890;2023-02-01T00:47:53;7.00;;;3.00;;
49948;SDS011;35840;45.982;8.890;2023-02-01T00:50:20;6.60;;;2.70;;
49948;SDS011;35840;45.982;8.890;2023-02-01T00:52:47;5.90;;;2.90;;
49948;SDS011;35840;45.982;8.890;2023-02-01T00:55:14;6.00;;;3.05;;
49948;SDS011;35840;45.982;8.890;2023-02-01T00:57:40;4.65;;;3.15;;
49948;SDS011;35840;45.982;8.890;2023-02-01T01:00:07;9.60;;;4.70;;
49948;SDS011;35840;45.982;8.890;2023-02-01T01:02:34;6.45;;;3.70;;
49948;SDS011;35840;45.982;8.890;2023-02-01T01:05:02;6.88;;;3.70;;
49948;SDS011;35840;45.982;8.890;2023-02-01T01:07:29;9.48;;;4.90;;
49948;SDS011;35840;45.982;8.890;2023-02-01T01:09:55;9.18;;;4.63;;
49948;SDS011;35840;45.982;8.890;2023-02-01T01:12:22;10.18;;;4.20;;
49948;SDS011;35840;45.982;8.890;2023-02-01T01:14:49;8.98;;;4.82;;
49948;SDS011;35840;45.982;8.890;2023-02-01T01:17:15;9.50;;;5.15;;
49948;SDS011;35840;45.982;8.890;2023-02-01T01:19:42;9.80;;;4.28;;
49948;SDS011;35840;45.982;8.890;2023-02-01T01:22:09;10.38;;;4.68;;
49948;SDS011;35840;45.982;8.890;2023-02-01T01:24:35;7.78;;;4.38;;
49948;SDS011;35840;45.982;8.890;2023-02-01T01:27:02;9.05;;;5.25;;
49948;SDS011;35840;45.982;8.890;2023-02-01T01:29:29;10.23;;;4.93;;
49948;SDS011;35840;45.982;8.890;2023-02-01T01:31:56;8.80;;;5.38;;
49948;SDS011;35840;45.982;8.890;2023-02-01T01:34:23;11.80;;;5.28;;
49948;SDS011;35840;45.982;8.890;2023-02-01T01:36:49;8.27;;;4.82;;
49948;SDS011;35840;45.982;8.890;2023-02-01T01:39:16;10.57;;;4.95;;
49948;SDS011;35840;45.982;8.890;2023-02-01T01:41:43;8.68;;;4.97;;
49948;SDS011;35840;45.982;8.890;2023-02-01T01:47:19;8.68;;;4.78;;
49948;SDS011;35840;45.982;8.890;2023-02-01T01:49:46;8.88;;;5.28;;
49948;SDS011;35840;45.982;8.890;2023-02-01T01:52:13;8.88;;;5.18;;
49948;SDS011;35840;45.982;8.890;2023-02-01T01:54:42;9.32;;;5.28;;
49948;SDS011;35840;45.982;8.890;2023-02-01T01:57:14;7.60;;;5.55;;
49948;SDS011;35840;45.982;8.890;2023-02-01T01:59:46;8.60;;;4.80;;
49948;SDS011;35840;45.982;8.890;2023-02-01T02:02:19;8.10;;;4.82;;
49948;SDS011;35840;45.982;8.890;2023-02-01T02:04:46;9.80;;;4.97;;
49948;SDS011;35840;45.982;8.890;2023-02-01T02:07:21;10.10;;;4.88;;
49948;SDS011;35840;45.982;8.890;2023-02-01T02:09:51;9.52;;;5.30;;
49948;SDS011;35840;45.982;8.890;2023-02-01T02:12:27;8.88;;;4.30;;
49948;SDS011;35840;45.982;8.890;2023-02-01T02:14:54;8.43;;;4.30;;
49948;SDS011;35840;45.982;8.890;2023-02-01T02:33:33;5.43;;;3.28;;
49948;SDS011;35840;45.982;8.890;2023-02-01T02:36:49;5.53;;;3.40;;
49948;SDS011;35840;45.982;8.890;2023-02-01T02:41:59;4.82;;;2.90;;
49948;SDS011;35840;45.982;8.890;2023-02-01T02:45:07;4.43;;;2.90;;
49948;SDS011;35840;45.982;8.890;2023-02-01T02:54:08;7.03;;;3.63;;
49948;SDS011;35840;45.982;8.890;2023-02-01T02:56:58;5.75;;;3.40;;
49948;SDS011;35840;45.982;8.890;2023-02-01T02:59:46;5.57;;;2.83;;
49948;SDS011;35840;45.982;8.890;2023-02-01T03:02:33;6.10;;;3.40;;
49948;SDS011;35840;45.982;8.890;2023-02-01T03:05:19;6.40;;;3.70;;
49948;SDS011;35840;45.982;8.890;2023-02-01T03:10:29;8.00;;;3.40;;
49948;SDS011;35840;45.982;8.890;2023-02-01T03:13:06;7.05;;;4.38;;
49948;SDS011;35840;45.982;8.890;2023-02-01T03:15:41;7.43;;;3.80;;
49948;SDS011;35840;45.982;8.890;2023-02-01T03:18:13;7.47;;;3.78;;
49948;SDS011;35840;45.982;8.890;2023-02-01T03:20:46;5.75;;;3.85;;
49948;SDS011;35840;45.982;8.890;2023-02-01T03:23:16;6.70;;;3.38;;
49948;SDS011;35840;45.982;8.890;2023-02-01T03:25:48;6.47;;;3.30;;
49948;SDS011;35840;45.982;8.890;2023-02-01T03:28:17;4.88;;;2.75;;
49948;SDS011;35840;45.982;8.890;2023-02-01T03:30:49;8.60;;;3.67;;
49948;SDS011;35840;45.982;8.890;2023-02-01T03:33:20;7.88;;;4.25;;
49948;SDS011;35840;45.982;8.890;2023-02-01T03:35:54;7.50;;;3.30;;
49948;SDS011;35840;45.982;8.890;2023-02-01T03:41:15;7.30;;;3.10;;
49948;SDS011;35840;45.982;8.890;2023-02-01T03:43:55;7.85;;;2.78;;
49948;SDS011;35840;45.982;8.890;2023-02-01T03:46:32;3.80;;;2.50;;
49948;SDS011;35840;45.982;8.890;2023-02-01T03:49:05;5.63;;;3.00;;
49948;SDS011;35840;45.982;8.890;2023-02-01T03:51:38;5.93;;;3.03;;
49948;SDS011;35840;45.982;8.890;2023-02-01T03:54:08;5.28;;;3.15;;
49948;SDS011;35840;45.982;8.890;2023-02-01T03:56:40;6.28;;;3.10;;
49948;SDS011;35840;45.982;8.890;2023-02-01T03:59:10;7.38;;;3.42;;
49948;SDS011;35840;45.982;8.890;2023-02-01T04:01:39;7.70;;;3.05;;
49948;SDS011;35840;45.982;8.890;2023-02-01T04:04:07;5.03;;;2.67;;
49948;SDS011;35840;45.982;8.890;2023-02-01T04:06:34;4.00;;;2.40;;
49948;SDS011;35840;45.982;8.890;2023-02-01T04:09:02;5.07;;;3.00;;
49948;SDS011;35840;45.982;8.890;2023-02-01T04:11:29;4.55;;;3.30;;
49948;SDS011;35840;45.982;8.890;2023-02-01T04:13:55;5.55;;;3.20;;
49948;SDS011;35840;45.982;8.890;2023-02-01T04:16:22;6.80;;;3.25;;
49948;SDS011;35840;45.982;8.890;2023-02-01T04:18:49;5.40;;;3.47;;
49948;SDS011;35840;45.982;8.890;2023-02-01T04:21:15;4.97;;;3.38;;
49948;SDS011;35840;45.982;8.890;2023-02-01T04:23:42;4.50;;;3.20;;
49948;SDS011;35840;45.982;8.890;2023-02-01T04:26:09;5.28;;;3.33;;
49948;SDS011;35840;45.982;8.890;2023-02-01T04:28:35;7.88;;;3.25;;
49948;SDS011;35840;45.982;8.890;2023-02-01T04:31:02;7.57;;;3.05;;
49948;SDS011;35840;45.982;8.890;2023-02-01T04:33:30;6.70;;;3.42;;
49948;SDS011;35840;45.982;8.890;2023-02-01T04:35:56;5.95;;;3.55;;
49948;SDS011;35840;45.982;8.890;2023-02-01T04:38:23;5.25;;;3.25;;
49948;SDS011;35840;45.982;8.890;2023-02-01T04:40:50;7.25;;;3.38;;
49948;SDS011;35840;45.982;8.890;2023-02-01T04:43:17;6.30;;;3.38;;
49948;SDS011;35840;45.982;8.890;2023-02-01T04:45:47;8.88;;;4.10;;
49948;SDS011;35840;45.982;8.890;2023-02-01T04:48:15;8.93;;;3.95;;
49948;SDS011;35840;45.982;8.890;2023-02-01T04:50:44;6.57;;;3.17;;
49948;SDS011;35840;45.982;8.890;2023-02-01T04:53:17;9.02;;;4.00;;
49948;SDS011;35840;45.982;8.890;2023-02-01T04:55:44;8.60;;;3.83;;
49948;SDS011;35840;45.982;8.890;2023-02-01T04:58:10;6.20;;;3.50;;
49948;SDS011;35840;45.982;8.890;2023-02-01T05:00:37;7.32;;;3.40;;
49948;SDS011;35840;45.982;8.890;2023-02-01T05:03:04;5.28;;;2.90;;
49948;SDS011;35840;45.982;8.890;2023-02-01T05:05:31;6.20;;;3.35;;
49948;SDS011;35840;45.982;8.890;2023-02-01T05:07:58;9.10;;;4.00;;
49948;SDS011;35840;45.982;8.890;2023-02-01T05:10:25;8.45;;;4.00;;
49948;SDS011;35840;45.982;8.890;2023-02-01T05:12:51;7.60;;;3.10;;
49948;SDS011;35840;45.982;8.890;2023-02-01T05:15:37;7.07;;;3.30;;
49948;SDS011;35840;45.982;8.890;2023-02-01T05:18:04;5.35;;;2.75;;
49948;SDS011;35840;45.982;8.890;2023-02-01T05:20:30;7.13;;;4.22;;
49948;SDS011;35840;45.982;8.890;2023-02-01T05:22:57;6.10;;;2.80;;
49948;SDS011;35840;45.982;8.890;2023-02-01T05:25:24;6.97;;;2.65;;
49948;SDS011;35840;45.982;8.890;2023-02-01T05:27:51;7.60;;;3.13;;
49948;SDS011;35840;45.982;8.890;2023-02-01T05:30:19;5.97;;;2.70;;
49948;SDS011;35840;45.982;8.890;2023-02-01T05:32:48;3.22;;;1.63;;
49948;SDS011;35840;45.982;8.890;2023-02-01T05:35:16;6.60;;;3.00;;
49948;SDS011;35840;45.982;8.890;2023-02-01T05:37:43;5.65;;;2.75;;
49948;SDS011;35840;45.982;8.890;2023-02-01T05:40:10;3.92;;;3.00;;
49948;SDS011;35840;45.982;8.890;2023-02-01T05:42:37;4.03;;;2.40;;
49948;SDS011;35840;45.982;8.890;2023-02-01T05:45:04;4.20;;;2.38;;
49948;SDS011;35840;45.982;8.890;2023-02-01T05:47:33;4.32;;;2.50;;
49948;SDS011;35840;45.982;8.890;2023-02-01T05:50:00;3.47;;;2.25;;
49948;SDS011;35840;45.982;8.890;2023-02-01T05:52:27;6.80;;;2.72;;
49948;SDS011;35840;45.982;8.890;2023-02-01T05:54:53;3.22;;;1.70;;
49948;SDS011;35840;45.982;8.890;2023-02-01T05:57:20;8.10;;;2.97;;
49948;SDS011;35840;45.982;8.890;2023-02-01T05:59:47;6.32;;;3.40;;
49948;SDS011;35840;45.982;8.890;2023-02-01T06:02:15;9.07;;;3.97;;
49948;SDS011;35840;45.982;8.890;2023-02-01T06:04:42;8.30;;;4.90;;
49948;SDS011;35840;45.982;8.890;2023-02-01T06:07:09;11.32;;;4.40;;
49948;SDS011;35840;45.982;8.890;2023-02-01T06:09:37;6.38;;;2.90;;
49948;SDS011;35840;45.982;8.890;2023-02-01T06:12:04;4.57;;;2.70;;
49948;SDS011;35840;45.982;8.890;2023-02-01T06:14:31;5.20;;;2.55;;
49948;SDS011;35840;45.982;8.890;2023-02-01T06:16:57;7.53;;;3.00;;
49948;SDS011;35840;45.982;8.890;2023-02-01T06:19:24;7.03;;;3.03;;
49948;SDS011;35840;45.982;8.890;2023-02-01T06:21:51;7.78;;;2.97;;
49948;SDS011;35840;45.982;8.890;2023-02-01T06:24:18;6.10;;;3.30;;
49948;SDS011;35840;45.982;8.890;2023-02-01T06:26:45;5.90;;;2.92;;
49948;SDS011;35840;45.982;8.890;2023-02-01T06:29:12;8.00;;;2.38;;
49948;SDS011;35840;45.982;8.890;2023-02-01T06:31:39;7.15;;;3.05;;
49948;SDS011;35840;45.982;8.890;2023-02-01T06:34:06;6.60;;;3.15;;
49948;SDS011;35840;45.982;8.890;2023-02-01T06:36:33;5.00;;;2.55;;
49948;SDS011;35840;45.982;8.890;2023-02-01T06:39:00;7.47;;;3.00;;
49948;SDS011;35840;45.982;8.890;2023-02-01T06:41:26;6.03;;;2.60;;
49948;SDS011;35840;45.982;8.890;2023-02-01T06:43:55;4.13;;;2.22;;
49948;SDS011;35840;45.982;8.890;2023-02-01T06:46:22;3.72;;;2.70;;
49948;SDS011;35840;45.982;8.890;2023-02-01T06:48:48;4.95;;;2.40;;
49948;SDS011;35840;45.982;8.890;2023-02-01T06:51:24;6.30;;;2.38;;
49948;SDS011;35840;45.982;8.890;2023-02-01T06:56:19;5.00;;;3.08;;
49948;SDS011;35840;45.982;8.890;2023-02-01T06:58:47;6.72;;;3.85;;
49948;SDS011;35840;45.982;8.890;2023-02-01T07:01:14;7.47;;;3.63;;
49948;SDS011;35840;45.982;8.890;2023-02-01T07:03:41;7.63;;;4.10;;
49948;SDS011;35840;45.982;8.890;2023-02-01T07:06:09;5.72;;;3.28;;
49948;SDS011;35840;45.982;8.890;2023-02-01T07:08:36;5.05;;;3.53;;
49948;SDS011;35840;45.982;8.890;2023-02-01T07:11:04;5.82;;;2.70;;
49948;SDS011;35840;45.982;8.890;2023-02-01T07:13:33;4.47;;;2.45;;
49948;SDS011;35840;45.982;8.890;2023-02-01T07:16:00;8.30;;;3.00;;
49948;SDS011;35840;45.982;8.890;2023-02-01T07:18:29;4.93;;;2.28;;
49948;SDS011;35840;45.982;8.890;2023-02-01T07:20:57;5.88;;;2.28;;
49948;SDS011;35840;45.982;8.890;2023-02-01T07:23:24;4.25;;;2.30;;
49948;SDS011;35840;45.982;8.890;2023-02-01T07:25:54;5.90;;;2.33;;
49948;SDS011;35840;45.982;8.890;2023-02-01T07:28:22;4.30;;;2.72;;
49948;SDS011;35840;45.982;8.890;2023-02-01T07:30:49;4.20;;;2.25;;
49948;SDS011;35840;45.982;8.890;2023-02-01T07:33:19;4.10;;;1.83;;
49948;SDS011;35840;45.982;8.890;2023-02-01T07:35:48;5.50;;;2.25;;
49948;SDS011;35840;45.982;8.890;2023-02-01T07:38:17;3.28;;;2.15;;
49948;SDS011;35840;45.982;8.890;2023-02-01T07:40:44;7.75;;;2.80;;
49948;SDS011;35840;45.982;8.890;2023-02-01T07:43:11;3.60;;;2.30;;
49948;SDS011;35840;45.982;8.890;2023-02-01T07:45:37;5.15;;;2.33;;
49948;SDS011;35840;45.982;8.890;2023-02-01T07:48:04;6.80;;;3.70;;
49948;SDS011;35840;45.982;8.890;2023-02-01T07:50:31;6.90;;;2.50;;
49948;SDS011;35840;45.982;8.890;2023-02-01T07:52:58;7.47;;;2.70;;
49948;SDS011;35840;45.982;8.890;2023-02-01T07:55:27;12.00;;;3.25;;
49948;SDS011;35840;45.982;8.890;2023-02-01T07:57:56;7.22;;;2.33;;
49948;SDS011;35840;45.982;8.890;2023-02-01T08:00:24;8.57;;;3.53;;
49948;SDS011;35840;45.982;8.890;2023-02-01T08:03:09;7.50;;;3.63;;
49948;SDS011;35840;45.982;8.890;2023-02-01T08:05:36;9.20;;;3.50;;
49948;SDS011;35840;45.982;8.890;2023-02-01T08:08:03;5.35;;;3.88;;
49948;SDS011;35840;45.982;8.890;2023-02-01T08:10:30;7.97;;;3.65;;
49948;SDS011;35840;45.982;8.890;2023-02-01T08:13:00;7.57;;;3.90;;
49948;SDS011;35840;45.982;8.890;2023-02-01T08:15:29;6.88;;;3.58;;
49948;SDS011;35840;45.982;8.890;2023-02-01T08:17:56;12.35;;;4.93;;
49948;SDS011;35840;45.982;8.890;2023-02-01T08:20:24;13.93;;;6.43;;
49948;SDS011;35840;45.982;8.890;2023-02-01T08:22:54;11.23;;;5.15;;
49948;SDS011;35840;45.982;8.890;2023-02-01T08:25:22;11.23;;;6.07;;
49948;SDS011;35840;45.982;8.890;2023-02-01T08:27:49;15.18;;;5.90;;
49948;SDS011;35840;45.982;8.890;2023-02-01T08:30:16;9.90;;;5.85;;
49948;SDS011;35840;45.982;8.890;2023-02-01T08:32:43;12.52;;;5.68;;
49948;SDS011;35840;45.982;8.890;2023-02-01T08:35:10;21.65;;;8.15;;
49948;SDS011;35840;45.982;8.890;2023-02-01T08:37:37;11.35;;;6.15;;
49948;SDS011;35840;45.982;8.890;2023-02-01T08:40:04;15.98;;;6.47;;
49948;SDS011;35840;45.982;8.890;2023-02-01T08:42:31;13.27;;;5.97;;
49948;SDS011;35840;45.982;8.890;2023-02-01T08:45:17;14.80;;;6.60;;
49948;SDS011;35840;45.982;8.890;2023-02-01T08:47:45;12.18;;;6.22;;
49948;SDS011;35840;45.982;8.890;2023-02-01T08:50:15;12.02;;;5.93;;
49948;SDS011;35840;45.982;8.890;2023-02-01T08:52:43;16.50;;;5.63;;
49948;SDS011;35840;45.982;8.890;2023-02-01T08:55:10;13.43;;;7.20;;
49948;SDS011;35840;45.982;8.890;2023-02-01T08:57:36;10.82;;;5.80;;
49948;SDS011;35840;45.982;8.890;2023-02-01T09:00:04;13.13;;;5.97;;
49948;SDS011;35840;45.982;8.890;2023-02-01T09:02:33;11.52;;;6.03;;
49948;SDS011;35840;45.982;8.890;2023-02-01T09:05:00;13.65;;;6.00;;
49948;SDS011;35840;45.982;8.890;2023-02-01T09:07:27;12.30;;;5.97;;
49948;SDS011;35840;45.982;8.890;2023-02-01T09:09:54;12.80;;;6.43;;
49948;SDS011;35840;45.982;8.890;2023-02-01T09:12:22;10.20;;;6.05;;
49948;SDS011;35840;45.982;8.890;2023-02-01T09:14:49;11.25;;;6.55;;
49948;SDS011;35840;45.982;8.890;2023-02-01T09:17:16;11.93;;;5.05;;
49948;SDS011;35840;45.982;8.890;2023-02-01T09:19:42;10.27;;;5.43;;
49948;SDS011;35840;45.982;8.890;2023-02-01T09:22:09;12.25;;;5.22;;
49948;SDS011;35840;45.982;8.890;2023-02-01T09:24:36;8.77;;;5.30;;
49948;SDS011;35840;45.982;8.890;2023-02-01T09:27:03;7.32;;;4.65;;
49948;SDS011;35840;45.982;8.890;2023-02-01T09:29:30;10.30;;;4.97;;
49948;SDS011;35840;45.982;8.890;2023-02-01T09:31:56;9.23;;;4.75;;
49948;SDS011;35840;45.982;8.890;2023-02-01T09:34:29;8.13;;;3.95;;
49948;SDS011;35840;45.982;8.890;2023-02-01T09:36:57;6.50;;;4.10;;
49948;SDS011;35840;45.982;8.890;2023-02-01T09:39:23;7.82;;;4.20;;
49948;SDS011;35840;45.982;8.890;2023-02-01T09:47:25;7.45;;;3.63;;
49948;SDS011;35840;45.982;8.890;2023-02-01T09:50:04;8.25;;;3.90;;
49948;SDS011;35840;45.982;8.890;2023-02-01T09:52:43;6.65;;;3.67;;
49948;SDS011;35840;45.982;8.890;2023-02-01T09:55:16;6.35;;;3.33;;
49948;SDS011;35840;45.982;8.890;2023-02-01T09:57:57;6.10;;;2.60;;
49948;SDS011;35840;45.982;8.890;2023-02-01T10:00:29;4.00;;;2.30;;
49948;SDS011;35840;45.982;8.890;2023-02-01T10:03:02;4.13;;;2.33;;
49948;SDS011;35840;45.982;8.890;2023-02-01T10:11:16;4.93;;;2.38;;
49948;SDS011;35840;45.982;8.890;2023-02-01T10:14:10;3.40;;;2.38;;
49948;SDS011;35840;45.982;8.890;2023-02-01T10:19:53;3.03;;;2.42;;
49948;SDS011;35840;45.982;8.890;2023-02-01T10:25:23;2.53;;;2.00;;
49948;SDS011;35840;45.982;8.890;2023-02-01T10:27:55;4.85;;;2.33;;
49948;SDS011;35840;45.982;8.890;2023-02-01T10:30:27;6.40;;;2.67;;
49948;SDS011;35840;45.982;8.890;2023-02-01T10:33:18;5.53;;;2.17;;
49948;SDS011;35840;45.982;8.890;2023-02-01T10:35:55;3.58;;;2.20;;
49948;SDS011;35840;45.982;8.890;2023-02-01T10:38:30;3.35;;;2.20;;
49948;SDS011;35840;45.982;8.890;2023-02-01T10:41:02;6.82;;;2.55;;
49948;SDS011;35840;45.982;8.890;2023-02-01T10:43:38;3.33;;;2.15;;
49948;SDS011;35840;45.982;8.890;2023-02-01T10:46:06;3.63;;;2.45;;
49948;SDS011;35840;45.982;8.890;2023-02-01T10:48:34;3.58;;;2.38;;
49948;SDS011;35840;45.982;8.890;2023-02-01T10:53:47;3.47;;;1.70;;
49948;SDS011;35840;45.982;8.890;2023-02-01T10:56:23;3.67;;;2.13;;
49948;SDS011;35840;45.982;8.890;2023-02-01T10:58:59;5.93;;;2.22;;
49948;SDS011;35840;45.982;8.890;2023-02-01T11:01:40;4.97;;;1.80;;
49948;SDS011;35840;45.982;8.890;2023-02-01T11:04:12;2.35;;;1.77;;
49948;SDS011;35840;45.982;8.890;2023-02-01T11:06:41;2.40;;;1.80;;
49948;SDS011;35840;45.982;8.890;2023-02-01T11:09:18;3.80;;;2.50;;
49948;SDS011;35840;45.982;8.890;2023-02-01T11:14:14;4.38;;;2.38;;
49948;SDS011;35840;45.982;8.890;2023-02-01T11:16:50;4.10;;;2.13;;
49948;SDS011;35840;45.982;8.890;2023-02-01T11:19:19;3.95;;;2.63;;
49948;SDS011;35840;45.982;8.890;2023-02-01T11:21:53;3.35;;;2.70;;
49948;SDS011;35840;45.982;8.890;2023-02-01T11:24:31;3.38;;;2.60;;
49948;SDS011;35840;45.982;8.890;2023-02-01T11:27:03;3.58;;;2.58;;
49948;SDS011;35840;45.982;8.890;2023-02-01T11:29:35;3.97;;;2.40;;
49948;SDS011;35840;45.982;8.890;2023-02-01T11:32:05;5.78;;;2.83;;
49948;SDS011;35840;45.982;8.890;2023-02-01T11:34:38;6.47;;;3.20;;
49948;SDS011;35840;45.982;8.890;2023-02-01T11:37:21;4.90;;;2.95;;
49948;SDS011;35840;45.982;8.890;2023-02-01T11:39:54;4.93;;;3.05;;
49948;SDS011;35840;45.982;8.890;2023-02-01T11:42:23;5.28;;;2.70;;
49948;SDS011;35840;45.982;8.890;2023-02-01T11:44:51;4.97;;;2.47;;
49948;SDS011;35840;45.982;8.890;2023-02-01T11:47:45;4.40;;;3.03;;
49948;SDS011;35840;45.982;8.890;2023-02-01T11:50:17;5.05;;;2.78;;
49948;SDS011;35840;45.982;8.890;2023-02-01T11:53:36;5.55;;;2.40;;
49948;SDS011;35840;45.982;8.890;2023-02-01T12:28:45;2.05;;;1.50;;
49948;SDS011;35840;45.982;8.890;2023-02-01T12:40:46;1.58;;;1.13;;
49948;SDS011;35840;45.982;8.890;2023-02-01T12:42:45;1.23;;;1.00;;
49948;SDS011;35840;45.982;8.890;2023-02-01T12:45:34;0.98;;;0.90;;
49948;SDS011;35840;45.982;8.890;2023-02-01T12:50:46;4.45;;;1.63;;
49948;SDS011;35840;45.982;8.890;2023-02-01T12:53:23;1.73;;;1.23;;
49948;SDS011;35840;45.982;8.890;2023-02-01T12:55:58;1.23;;;1.05;;
49948;SDS011;35840;45.982;8.890;2023-02-01T12:58:51;2.28;;;1.40;;
49948;SDS011;35840;45.982;8.890;2023-02-01T13:07:03;4.22;;;1.20;;
49948;SDS011;35840;45.982;8.890;2023-02-01T13:12:33;1.42;;;1.05;;
49948;SDS011;35840;45.982;8.890;2023-02-01T13:18:03;3.03;;;1.20;;
49948;SDS011;35840;45.982;8.890;2023-02-01T13:20:42;3.47;;;1.40;;
49948;SDS011;35840;45.982;8.890;2023-02-01T13:23:29;2.30;;;1.60;;
49948;SDS011;35840;45.982;8.890;2023-02-01T13:25:59;2.92;;;1.80;;
49948;SDS011;35840;45.982;8.890;2023-02-01T13:28:28;3.50;;;1.35;;
49948;SDS011;35840;45.982;8.890;2023-02-01T13:39:14;3.15;;;1.73;;
49948;SDS011;35840;45.982;8.890;2023-02-01T13:44:26;2.50;;;1.50;;
49948;SDS011;35840;45.982;8.890;2023-02-01T13:47:00;5.35;;;1.40;;
49948;SDS011;35840;45.982;8.890;2023-02-01T13:49:30;3.97;;;1.92;;
49948;SDS011;35840;45.982;8.890;2023-02-01T13:52:06;2.92;;;1.80;;
49948;SDS011;35840;45.982;8.890;2023-02-01T13:57:47;2.97;;;1.67;;
49948;SDS011;35840;45.982;8.890;2023-02-01T14:00:27;5.72;;;2.42;;
49948;SDS011;35840;45.982;8.890;2023-02-01T14:13:31;2.83;;;1.75;;
49948;SDS011;35840;45.982;8.890;2023-02-01T14:23:55;2.45;;;1.55;;
49948;SDS011;35840;45.982;8.890;2023-02-01T14:26:40;0.47;;;0.47;;
49948;SDS011;35840;45.982;8.890;2023-02-01T14:45:46;1.55;;;0.43;;
49948;SDS011;35840;45.982;8.890;2023-02-01T14:52:51;1.38;;;0.40;;
49948;SDS011;35840;45.982;8.890;2023-02-01T15:01:05;1.85;;;0.40;;
49948;SDS011;35840;45.982;8.890;2023-02-01T15:03:56;1.15;;;0.43;;
49948;SDS011;35840;45.982;8.890;2023-02-01T15:06:32;0.82;;;0.63;;
49948;SDS011;35840;45.982;8.890;2023-02-01T15:09:07;0.50;;;0.50;;
49948;SDS011;35840;45.982;8.890;2023-02-01T15:14:44;1.50;;;0.43;;
49948;SDS011;35840;45.982;8.890;2023-02-01T15:17:19;0.70;;;0.50;;
49948;SDS011;35840;45.982;8.890;2023-02-01T15:22:25;1.70;;;0.52;;
49948;SDS011;35840;45.982;8.890;2023-02-01T15:24:58;0.50;;;0.40;;
49948;SDS011;35840;45.982;8.890;2023-02-01T15:27:26;0.90;;;0.57;;
49948;SDS011;35840;45.982;8.890;2023-02-01T15:30:04;4.55;;;0.50;;
49948;SDS011;35840;45.982;8.890;2023-02-01T15:32:36;0.82;;;0.40;;
49948;SDS011;35840;45.982;8.890;2023-02-01T15:35:05;0.80;;;0.57;;
49948;SDS011;35840;45.982;8.890;2023-02-01T15:37:52;0.50;;;0.50;;
49948;SDS011;35840;45.982;8.890;2023-02-01T15:40:20;0.82;;;0.75;;
49948;SDS011;35840;45.982;8.890;2023-02-01T15:42:51;0.93;;;0.57;;
49948;SDS011;35840;45.982;8.890;2023-02-01T15:45:21;0.60;;;0.60;;
49948;SDS011;35840;45.982;8.890;2023-02-01T15:47:52;1.58;;;0.77;;
49948;SDS011;35840;45.982;8.890;2023-02-01T15:50:21;2.58;;;0.60;;
49948;SDS011;35840;45.982;8.890;2023-02-01T15:52:52;0.65;;;0.40;;
49948;SDS011;35840;45.982;8.890;2023-02-01T15:57:58;1.02;;;0.55;;
49948;SDS011;35840;45.982;8.890;2023-02-01T16:00:26;1.20;;;0.50;;
49948;SDS011;35840;45.982;8.890;2023-02-01T16:03:03;2.38;;;1.10;;
49948;SDS011;35840;45.982;8.890;2023-02-01T16:08:05;5.03;;;1.80;;
49948;SDS011;35840;45.982;8.890;2023-02-01T16:10:44;6.80;;;1.80;;
49948;SDS011;35840;45.982;8.890;2023-02-01T16:13:13;2.83;;;1.60;;
49948;SDS011;35840;45.982;8.890;2023-02-01T16:15:41;5.57;;;2.53;;
49948;SDS011;35840;45.982;8.890;2023-02-01T16:18:09;1.83;;;1.45;;
49948;SDS011;35840;45.982;8.890;2023-02-01T16:20:37;2.13;;;1.60;;
49948;SDS011;35840;45.982;8.890;2023-02-01T16:23:06;1.73;;;1.02;;
49948;SDS011;35840;45.982;8.890;2023-02-01T16:25:34;2.58;;;1.00;;
49948;SDS011;35840;45.982;8.890;2023-02-01T16:28:01;2.95;;;0.70;;
49948;SDS011;35840;45.982;8.890;2023-02-01T16:30:28;1.92;;;1.00;;
49948;SDS011;35840;45.982;8.890;2023-02-01T16:32:55;2.72;;;1.15;;
49948;SDS011;35840;45.982;8.890;2023-02-01T16:35:29;3.20;;;1.67;;
49948;SDS011;35840;45.982;8.890;2023-02-01T16:38:04;6.78;;;4.00;;
49948;SDS011;35840;45.982;8.890;2023-02-01T16:40:39;10.00;;;3.00;;
49948;SDS011;35840;45.982;8.890;2023-02-01T16:43:13;7.63;;;3.47;;
49948;SDS011;35840;45.982;8.890;2023-02-01T16:45:41;9.50;;;3.05;;
49948;SDS011;35840;45.982;8.890;2023-02-01T16:48:21;6.00;;;3.10;;
49948;SDS011;35840;45.982;8.890;2023-02-01T16:50:52;5.15;;;2.90;;
49948;SDS011;35840;45.982;8.890;2023-02-01T16:53:22;4.07;;;2.53;;
49948;SDS011;35840;45.982;8.890;2023-02-01T16:55:50;3.72;;;1.88;;
49948;SDS011;35840;45.982;8.890;2023-02-01T16:58:19;5.05;;;2.10;;
49948;SDS011;35840;45.982;8.890;2023-02-01T17:00:47;2.38;;;1.52;;
49948;SDS011;35840;45.982;8.890;2023-02-01T17:03:17;5.10;;;1.85;;
49948;SDS011;35840;45.982;8.890;2023-02-01T17:05:49;3.85;;;1.77;;
49948;SDS011;35840;45.982;8.890;2023-02-01T17:08:39;3.10;;;2.15;;
49948;SDS011;35840;45.982;8.890;2023-02-01T17:11:08;3.35;;;2.20;;
49948;SDS011;35840;45.982;8.890;2023-02-01T17:13:37;5.18;;;2.13;;
49948;SDS011;35840;45.982;8.890;2023-02-01T17:16:05;2.03;;;1.38;;
49948;SDS011;35840;45.982;8.890;2023-02-01T17:19:05;3.20;;;1.63;;
49948;SDS011;35840;45.982;8.890;2023-02-01T17:21:44;5.65;;;1.40;;
49948;SDS011;35840;45.982;8.890;2023-02-01T17:24:16;3.22;;;1.33;;
49948;SDS011;35840;45.982;8.890;2023-02-01T17:26:45;1.90;;;1.60;;
49948;SDS011;35840;45.982;8.890;2023-02-01T17:29:12;8.13;;;1.98;;
49948;SDS011;35840;45.982;8.890;2023-02-01T17:31:40;4.05;;;2.30;;
49948;SDS011;35840;45.982;8.890;2023-02-01T17:34:12;2.08;;;1.50;;
49948;SDS011;35840;45.982;8.890;2023-02-01T17:36:45;3.17;;;1.35;;
49948;SDS011;35840;45.982;8.890;2023-02-01T17:39:13;2.60;;;1.83;;
49948;SDS011;35840;45.982;8.890;2023-02-01T17:42:01;5.47;;;1.90;;
49948;SDS011;35840;45.982;8.890;2023-02-01T17:44:31;6.60;;;2.25;;
49948;SDS011;35840;45.982;8.890;2023-02-01T17:46:58;5.07;;;1.88;;
49948;SDS011;35840;45.982;8.890;2023-02-01T17:49:25;2.65;;;1.60;;
49948;SDS011;35840;45.982;8.890;2023-02-01T17:51:54;2.22;;;1.67;;
49948;SDS011;35840;45.982;8.890;2023-02-01T17:54:22;2.47;;;1.60;;
49948;SDS011;35840;45.982;8.890;2023-02-01T17:56:51;4.78;;;2.03;;
49948;SDS011;35840;45.982;8.890;2023-02-01T17:59:18;3.33;;;2.10;;
49948;SDS011;35840;45.982;8.890;2023-02-01T18:01:44;3.60;;;2.58;;
49948;SDS011;35840;45.982;8.890;2023-02-01T18:04:12;3.63;;;1.70;;
49948;SDS011;35840;45.982;8.890;2023-02-01T18:06:42;2.22;;;1.90;;
49948;SDS011;35840;45.982;8.890;2023-02-01T18:09:09;3.00;;;2.70;;
49948;SDS011;35840;45.982;8.890;2023-02-01T18:11:36;4.60;;;2.25;;
49948;SDS011;35840;45.982;8.890;2023-02-01T18:14:02;3.72;;;2.45;;